sensor_id;sensor_type;location;lat;lon;timestamp;P1;durP1;ratioP1;P2;durP2;ratioP2
13641;SDS011;6894;52.196;9.904;2024-02-16T00:01:13;4.53;;;2.00;;
13641;SDS011;6894;52.196;9.904;2024-02-16T00:03:40;3.63;;;2.03;;
13641;SDS011;6894;52.196;9.904;2024-02-16T00:06:07;3.10;;;2.40;;
13641;SDS011;6894;52.196;9.904;2024-02-16T00:08:35;2.97;;;2.07;;
13641;SDS011;6894;52.196;9.904;2024-02-16T00:11:03;3.30;;;1.83;;
13641;SDS011;6894;52.196;9.904;2024-02-16T00:13:30;3.87;;;1.60;;
13641;SDS011;6894;52.196;9.904;2024-02-16T00:15:57;2.83;;;1.23;;
13641;SDS011;6894;52.196;9.904;2024-02-16T00:18:24;4.40;;;1.87;;
13641;SDS011;6894;52.196;9.904;2024-02-16T00:20:51;3.63;;;1.23;;
13641;SDS011;6894;52.196;9.904;2024-02-16T00:23:18;2.93;;;1.47;;
13641;SDS011;6894;52.196;9.904;2024-02-16T00:25:48;2.90;;;1.37;;
13641;SDS011;6894;52.196;9.904;2024-02-16T00:28:15;5.30;;;1.60;;
13641;SDS011;6894;52.196;9.904;2024-02-16T00:30:42;3.43;;;1.50;;
13641;SDS011;6894;52.196;9.904;2024-02-16T00:33:09;2.63;;;1.10;;
13641;SDS011;6894;52.196;9.904;2024-02-16T00:35:35;3.23;;;1.40;;
13641;SDS011;6894;52.196;9.904;2024-02-16T00:38:02;2.00;;;1.10;;
13641;SDS011;6894;52.196;9.904;2024-02-16T00:40:29;3.10;;;1.20;;
13641;SDS011;6894;52.196;9.904;2024-02-16T00:42:57;3.43;;;1.27;;
13641;SDS011;6894;52.196;9.904;2024-02-16T00:45:24;2.70;;;1.00;;
13641;SDS011;6894;52.196;9.904;2024-02-16T00:47:51;1.63;;;1.13;;
13641;SDS011;6894;52.196;9.904;2024-02-16T00:50:18;3.03;;;1.40;;
13641;SDS011;6894;52.196;9.904;2024-02-16T00:52:44;2.90;;;1.10;;
13641;SDS011;6894;52.196;9.904;2024-02-16T00:55:11;2.97;;;1.40;;
13641;SDS011;6894;52.196;9.904;2024-02-16T00:57:39;5.10;;;0.90;;
13641;SDS011;6894;52.196;9.904;2024-02-16T01:00:10;3.17;;;1.20;;
13641;SDS011;6894;52.196;9.904;2024-02-16T01:02:40;2.03;;;1.13;;
13641;SDS011;6894;52.196;9.904;2024-02-16T01:05:07;2.00;;;1.20;;
13641;SDS011;6894;52.196;9.904;2024-02-16T01:07:35;2.63;;;1.50;;
13641;SDS011;6894;52.196;9.904;2024-02-16T01:10:02;1.63;;;1.10;;
13641;SDS011;6894;52.196;9.904;2024-02-16T01:12:29;3.37;;;1.20;;
13641;SDS011;6894;52.196;9.904;2024-02-16T01:14:56;2.33;;;1.27;;
13641;SDS011;6894;52.196;9.904;2024-02-16T01:17:24;2.47;;;1.20;;
13641;SDS011;6894;52.196;9.904;2024-02-16T01:19:51;3.40;;;1.27;;
13641;SDS011;6894;52.196;9.904;2024-02-16T01:22:18;2.13;;;0.90;;
13641;SDS011;6894;52.196;9.904;2024-02-16T01:24:45;2.30;;;1.40;;
13641;SDS011;6894;52.196;9.904;2024-02-16T01:27:11;1.77;;;1.10;;
13641;SDS011;6894;52.196;9.904;2024-02-16T01:29:38;3.17;;;1.40;;
13641;SDS011;6894;52.196;9.904;2024-02-16T01:32:05;4.47;;;1.50;;
13641;SDS011;6894;52.196;9.904;2024-02-16T01:34:34;1.97;;;1.20;;
13641;SDS011;6894;52.196;9.904;2024-02-16T01:37:00;3.07;;;1.47;;
13641;SDS011;6894;52.196;9.904;2024-02-16T01:39:27;2.33;;;1.30;;
13641;SDS011;6894;52.196;9.904;2024-02-16T01:41:54;1.60;;;0.93;;
13641;SDS011;6894;52.196;9.904;2024-02-16T01:44:21;3.70;;;1.20;;
13641;SDS011;6894;52.196;9.904;2024-02-16T01:46:47;2.93;;;1.33;;
13641;SDS011;6894;52.196;9.904;2024-02-16T01:49:14;3.17;;;1.10;;
13641;SDS011;6894;52.196;9.904;2024-02-16T01:51:42;2.37;;;1.00;;
13641;SDS011;6894;52.196;9.904;2024-02-16T01:54:11;3.13;;;1.00;;
13641;SDS011;6894;52.196;9.904;2024-02-16T01:56:37;4.70;;;1.40;;
13641;SDS011;6894;52.196;9.904;2024-02-16T01:59:03;2.23;;;1.20;;
13641;SDS011;6894;52.196;9.904;2024-02-16T02:01:30;1.53;;;0.93;;
13641;SDS011;6894;52.196;9.904;2024-02-16T02:03:57;2.80;;;1.30;;
13641;SDS011;6894;52.196;9.904;2024-02-16T02:06:24;2.43;;;1.30;;
13641;SDS011;6894;52.196;9.904;2024-02-16T02:08:52;3.77;;;1.10;;
13641;SDS011;6894;52.196;9.904;2024-02-16T02:11:19;2.53;;;1.10;;
13641;SDS011;6894;52.196;9.904;2024-02-16T02:13:45;2.33;;;1.03;;
13641;SDS011;6894;52.196;9.904;2024-02-16T02:16:12;3.20;;;1.30;;
13641;SDS011;6894;52.196;9.904;2024-02-16T02:18:40;2.83;;;1.20;;
13641;SDS011;6894;52.196;9.904;2024-02-16T02:21:07;3.17;;;1.20;;
13641;SDS011;6894;52.196;9.904;2024-02-16T02:23:35;2.53;;;1.10;;
13641;SDS011;6894;52.196;9.904;2024-02-16T02:26:02;4.17;;;1.50;;
13641;SDS011;6894;52.196;9.904;2024-02-16T02:28:29;2.13;;;1.10;;
13641;SDS011;6894;52.196;9.904;2024-02-16T02:30:56;1.50;;;1.00;;
13641;SDS011;6894;52.196;9.904;2024-02-16T02:33:23;2.47;;;1.20;;
13641;SDS011;6894;52.196;9.904;2024-02-16T02:35:49;4.70;;;1.30;;
13641;SDS011;6894;52.196;9.904;2024-02-16T02:38:16;2.07;;;1.00;;
13641;SDS011;6894;52.196;9.904;2024-02-16T02:40:44;2.57;;;1.10;;
13641;SDS011;6894;52.196;9.904;2024-02-16T02:43:11;3.10;;;0.90;;
13641;SDS011;6894;52.196;9.904;2024-02-16T02:45:39;2.23;;;1.07;;
13641;SDS011;6894;52.196;9.904;2024-02-16T02:48:06;2.70;;;1.03;;
13641;SDS011;6894;52.196;9.904;2024-02-16T02:50:33;1.90;;;1.13;;
13641;SDS011;6894;52.196;9.904;2024-02-16T02:53:00;1.97;;;1.13;;
13641;SDS011;6894;52.196;9.904;2024-02-16T02:55:26;1.20;;;1.00;;
13641;SDS011;6894;52.196;9.904;2024-02-16T02:57:54;2.17;;;1.20;;
13641;SDS011;6894;52.196;9.904;2024-02-16T03:00:22;2.57;;;0.97;;
13641;SDS011;6894;52.196;9.904;2024-02-16T03:02:50;1.53;;;1.10;;
13641;SDS011;6894;52.196;9.904;2024-02-16T03:05:17;2.43;;;1.20;;
13641;SDS011;6894;52.196;9.904;2024-02-16T03:07:45;2.27;;;1.23;;
13641;SDS011;6894;52.196;9.904;2024-02-16T03:10:11;1.43;;;1.20;;
13641;SDS011;6894;52.196;9.904;2024-02-16T03:12:40;2.00;;;1.03;;
13641;SDS011;6894;52.196;9.904;2024-02-16T03:15:09;2.43;;;1.43;;
13641;SDS011;6894;52.196;9.904;2024-02-16T03:17:35;2.40;;;1.00;;
13641;SDS011;6894;52.196;9.904;2024-02-16T03:20:02;1.40;;;1.00;;
13641;SDS011;6894;52.196;9.904;2024-02-16T03:22:30;3.93;;;1.00;;
13641;SDS011;6894;52.196;9.904;2024-02-16T03:24:57;1.53;;;1.20;;
13641;SDS011;6894;52.196;9.904;2024-02-16T03:27:23;2.43;;;0.90;;
13641;SDS011;6894;52.196;9.904;2024-02-16T03:29:50;2.43;;;1.10;;
13641;SDS011;6894;52.196;9.904;2024-02-16T03:32:19;2.90;;;1.00;;
13641;SDS011;6894;52.196;9.904;2024-02-16T03:34:46;2.67;;;0.80;;
13641;SDS011;6894;52.196;9.904;2024-02-16T03:37:13;3.00;;;1.10;;
13641;SDS011;6894;52.196;9.904;2024-02-16T03:39:41;3.17;;;1.43;;
13641;SDS011;6894;52.196;9.904;2024-02-16T03:42:08;1.33;;;1.00;;
13641;SDS011;6894;52.196;9.904;2024-02-16T03:44:35;1.70;;;1.07;;
13641;SDS011;6894;52.196;9.904;2024-02-16T03:47:02;1.33;;;1.13;;
13641;SDS011;6894;52.196;9.904;2024-02-16T03:49:30;2.20;;;1.17;;
13641;SDS011;6894;52.196;9.904;2024-02-16T03:51:57;1.70;;;1.23;;
13641;SDS011;6894;52.196;9.904;2024-02-16T03:54:24;2.80;;;1.00;;
13641;SDS011;6894;52.196;9.904;2024-02-16T03:56:52;3.50;;;1.47;;
13641;SDS011;6894;52.196;9.904;2024-02-16T03:59:19;3.93;;;1.10;;
13641;SDS011;6894;52.196;9.904;2024-02-16T04:01:46;1.73;;;1.20;;
13641;SDS011;6894;52.196;9.904;2024-02-16T04:04:13;11.37;;;1.70;;
13641;SDS011;6894;52.196;9.904;2024-02-16T04:06:41;1.23;;;1.00;;
13641;SDS011;6894;52.196;9.904;2024-02-16T04:09:08;2.00;;;1.13;;
13641;SDS011;6894;52.196;9.904;2024-02-16T04:11:35;3.27;;;1.50;;
13641;SDS011;6894;52.196;9.904;2024-02-16T04:14:02;1.00;;;0.90;;
13641;SDS011;6894;52.196;9.904;2024-02-16T04:16:30;3.47;;;1.37;;
13641;SDS011;6894;52.196;9.904;2024-02-16T04:18:56;1.73;;;1.00;;
13641;SDS011;6894;52.196;9.904;2024-02-16T04:21:23;5.23;;;1.10;;
13641;SDS011;6894;52.196;9.904;2024-02-16T04:23:51;3.10;;;1.10;;
13641;SDS011;6894;52.196;9.904;2024-02-16T04:26:18;2.87;;;1.20;;
13641;SDS011;6894;52.196;9.904;2024-02-16T04:28:45;3.20;;;1.13;;
13641;SDS011;6894;52.196;9.904;2024-02-16T04:31:11;3.50;;;1.17;;
13641;SDS011;6894;52.196;9.904;2024-02-16T04:33:38;1.60;;;1.27;;
13641;SDS011;6894;52.196;9.904;2024-02-16T04:36:05;2.47;;;1.40;;
13641;SDS011;6894;52.196;9.904;2024-02-16T04:38:33;2.00;;;1.00;;
13641;SDS011;6894;52.196;9.904;2024-02-16T04:41:01;2.10;;;1.40;;
13641;SDS011;6894;52.196;9.904;2024-02-16T04:43:28;1.40;;;1.10;;
13641;SDS011;6894;52.196;9.904;2024-02-16T04:45:54;3.90;;;1.67;;
13641;SDS011;6894;52.196;9.904;2024-02-16T04:48:21;3.73;;;1.43;;
13641;SDS011;6894;52.196;9.904;2024-02-16T04:50:48;2.50;;;1.10;;
13641;SDS011;6894;52.196;9.904;2024-02-16T04:53:14;2.10;;;1.30;;
13641;SDS011;6894;52.196;9.904;2024-02-16T04:55:41;2.60;;;1.03;;
13641;SDS011;6894;52.196;9.904;2024-02-16T04:58:09;2.03;;;1.07;;
13641;SDS011;6894;52.196;9.904;2024-02-16T05:00:36;4.07;;;1.30;;
13641;SDS011;6894;52.196;9.904;2024-02-16T05:03:03;1.20;;;0.90;;
13641;SDS011;6894;52.196;9.904;2024-02-16T05:05:31;2.10;;;1.00;;
13641;SDS011;6894;52.196;9.904;2024-02-16T05:07:57;1.67;;;1.13;;
13641;SDS011;6894;52.196;9.904;2024-02-16T05:10:25;3.00;;;1.20;;
13641;SDS011;6894;52.196;9.904;2024-02-16T05:12:51;2.13;;;0.90;;
13641;SDS011;6894;52.196;9.904;2024-02-16T05:15:20;1.93;;;1.17;;
13641;SDS011;6894;52.196;9.904;2024-02-16T05:17:47;3.40;;;1.50;;
13641;SDS011;6894;52.196;9.904;2024-02-16T05:20:16;0.93;;;0.80;;
13641;SDS011;6894;52.196;9.904;2024-02-16T05:22:44;2.67;;;1.10;;
13641;SDS011;6894;52.196;9.904;2024-02-16T05:25:14;2.40;;;1.13;;
13641;SDS011;6894;52.196;9.904;2024-02-16T05:27:42;2.40;;;1.40;;
13641;SDS011;6894;52.196;9.904;2024-02-16T05:30:10;2.23;;;1.70;;
13641;SDS011;6894;52.196;9.904;2024-02-16T05:32:41;2.00;;;1.27;;
13641;SDS011;6894;52.196;9.904;2024-02-16T05:35:09;2.30;;;1.43;;
13641;SDS011;6894;52.196;9.904;2024-02-16T05:37:39;3.83;;;2.30;;
13641;SDS011;6894;52.196;9.904;2024-02-16T05:40:09;2.83;;;1.20;;
13641;SDS011;6894;52.196;9.904;2024-02-16T05:42:46;2.70;;;1.77;;
13641;SDS011;6894;52.196;9.904;2024-02-16T05:45:14;4.83;;;1.70;;
13641;SDS011;6894;52.196;9.904;2024-02-16T05:47:42;2.60;;;1.57;;
13641;SDS011;6894;52.196;9.904;2024-02-16T05:50:11;3.00;;;1.60;;
13641;SDS011;6894;52.196;9.904;2024-02-16T05:52:39;3.20;;;2.07;;
13641;SDS011;6894;52.196;9.904;2024-02-16T05:55:06;2.87;;;1.70;;
13641;SDS011;6894;52.196;9.904;2024-02-16T05:57:34;4.10;;;1.50;;
13641;SDS011;6894;52.196;9.904;2024-02-16T06:00:00;2.90;;;1.40;;
13641;SDS011;6894;52.196;9.904;2024-02-16T06:02:29;2.20;;;1.53;;
13641;SDS011;6894;52.196;9.904;2024-02-16T06:04:57;2.77;;;1.10;;
13641;SDS011;6894;52.196;9.904;2024-02-16T06:07:24;1.97;;;1.50;;
13641;SDS011;6894;52.196;9.904;2024-02-16T06:09:51;1.63;;;1.30;;
13641;SDS011;6894;52.196;9.904;2024-02-16T06:12:19;2.63;;;1.60;;
13641;SDS011;6894;52.196;9.904;2024-02-16T06:14:46;1.77;;;1.00;;
13641;SDS011;6894;52.196;9.904;2024-02-16T06:17:13;1.97;;;1.33;;
13641;SDS011;6894;52.196;9.904;2024-02-16T06:19:40;2.60;;;1.63;;
13641;SDS011;6894;52.196;9.904;2024-02-16T06:22:08;2.97;;;1.23;;
13641;SDS011;6894;52.196;9.904;2024-02-16T06:24:35;1.43;;;1.00;;
13641;SDS011;6894;52.196;9.904;2024-02-16T06:27:02;4.03;;;1.60;;
13641;SDS011;6894;52.196;9.904;2024-02-16T06:29:30;1.67;;;0.97;;
13641;SDS011;6894;52.196;9.904;2024-02-16T06:31:57;1.67;;;1.40;;
13641;SDS011;6894;52.196;9.904;2024-02-16T06:34:23;1.87;;;1.37;;
13641;SDS011;6894;52.196;9.904;2024-02-16T06:36:50;3.03;;;1.53;;
13641;SDS011;6894;52.196;9.904;2024-02-16T06:39:18;2.37;;;1.37;;
13641;SDS011;6894;52.196;9.904;2024-02-16T06:41:45;2.13;;;0.97;;
13641;SDS011;6894;52.196;9.904;2024-02-16T06:44:12;1.57;;;1.40;;
13641;SDS011;6894;52.196;9.904;2024-02-16T06:46:39;3.50;;;1.00;;
13641;SDS011;6894;52.196;9.904;2024-02-16T06:49:06;2.03;;;1.13;;
13641;SDS011;6894;52.196;9.904;2024-02-16T06:51:33;2.23;;;1.10;;
13641;SDS011;6894;52.196;9.904;2024-02-16T06:54:00;1.67;;;1.10;;
13641;SDS011;6894;52.196;9.904;2024-02-16T06:56:29;2.13;;;1.30;;
13641;SDS011;6894;52.196;9.904;2024-02-16T06:58:56;2.53;;;1.20;;
13641;SDS011;6894;52.196;9.904;2024-02-16T07:01:22;2.97;;;1.87;;
13641;SDS011;6894;52.196;9.904;2024-02-16T07:03:51;2.37;;;1.13;;
13641;SDS011;6894;52.196;9.904;2024-02-16T07:06:17;3.60;;;1.50;;
13641;SDS011;6894;52.196;9.904;2024-02-16T07:08:44;1.67;;;1.00;;
13641;SDS011;6894;52.196;9.904;2024-02-16T07:11:11;2.07;;;1.10;;
13641;SDS011;6894;52.196;9.904;2024-02-16T07:13:39;2.70;;;1.20;;
13641;SDS011;6894;52.196;9.904;2024-02-16T07:16:07;2.37;;;1.10;;
13641;SDS011;6894;52.196;9.904;2024-02-16T07:18:34;2.23;;;1.40;;
13641;SDS011;6894;52.196;9.904;2024-02-16T07:21:01;3.57;;;1.33;;
13641;SDS011;6894;52.196;9.904;2024-02-16T07:23:28;3.00;;;1.30;;
13641;SDS011;6894;52.196;9.904;2024-02-16T07:25:55;2.60;;;1.13;;
13641;SDS011;6894;52.196;9.904;2024-02-16T07:28:23;2.43;;;1.20;;
13641;SDS011;6894;52.196;9.904;2024-02-16T07:30:51;2.27;;;1.20;;
13641;SDS011;6894;52.196;9.904;2024-02-16T07:33:19;1.30;;;1.00;;
13641;SDS011;6894;52.196;9.904;2024-02-16T07:35:46;2.33;;;1.27;;
13641;SDS011;6894;52.196;9.904;2024-02-16T07:38:13;1.97;;;1.13;;
13641;SDS011;6894;52.196;9.904;2024-02-16T07:40:40;2.73;;;1.30;;
13641;SDS011;6894;52.196;9.904;2024-02-16T07:43:07;2.73;;;1.10;;
13641;SDS011;6894;52.196;9.904;2024-02-16T07:45:33;4.80;;;1.50;;
13641;SDS011;6894;52.196;9.904;2024-02-16T07:48:02;2.73;;;1.00;;
13641;SDS011;6894;52.196;9.904;2024-02-16T07:50:30;2.23;;;1.17;;
13641;SDS011;6894;52.196;9.904;2024-02-16T07:52:57;2.43;;;1.40;;
13641;SDS011;6894;52.196;9.904;2024-02-16T07:55:24;3.53;;;1.27;;
13641;SDS011;6894;52.196;9.904;2024-02-16T07:57:50;1.90;;;1.23;;
13641;SDS011;6894;52.196;9.904;2024-02-16T08:00:18;2.63;;;1.60;;
13641;SDS011;6894;52.196;9.904;2024-02-16T08:02:45;4.10;;;1.40;;
13641;SDS011;6894;52.196;9.904;2024-02-16T08:05:13;2.13;;;1.40;;
13641;SDS011;6894;52.196;9.904;2024-02-16T08:07:40;1.20;;;1.10;;
13641;SDS011;6894;52.196;9.904;2024-02-16T08:10:08;1.30;;;1.10;;
13641;SDS011;6894;52.196;9.904;2024-02-16T08:12:35;2.90;;;1.33;;
13641;SDS011;6894;52.196;9.904;2024-02-16T08:15:03;3.83;;;1.83;;
13641;SDS011;6894;52.196;9.904;2024-02-16T08:17:32;1.93;;;1.03;;
13641;SDS011;6894;52.196;9.904;2024-02-16T08:19:59;1.43;;;1.20;;
13641;SDS011;6894;52.196;9.904;2024-02-16T08:22:27;2.47;;;1.60;;
13641;SDS011;6894;52.196;9.904;2024-02-16T08:24:53;1.63;;;1.30;;
13641;SDS011;6894;52.196;9.904;2024-02-16T08:27:20;2.30;;;1.23;;
13641;SDS011;6894;52.196;9.904;2024-02-16T08:29:47;2.17;;;1.20;;
13641;SDS011;6894;52.196;9.904;2024-02-16T08:32:14;1.97;;;1.07;;
13641;SDS011;6894;52.196;9.904;2024-02-16T08:34:41;1.80;;;1.17;;
13641;SDS011;6894;52.196;9.904;2024-02-16T08:37:08;1.93;;;1.30;;
13641;SDS011;6894;52.196;9.904;2024-02-16T08:39:37;1.67;;;1.00;;
13641;SDS011;6894;52.196;9.904;2024-02-16T08:42:04;2.40;;;1.10;;
13641;SDS011;6894;52.196;9.904;2024-02-16T08:44:32;1.50;;;1.30;;
13641;SDS011;6894;52.196;9.904;2024-02-16T08:46:59;2.43;;;1.10;;
13641;SDS011;6894;52.196;9.904;2024-02-16T08:49:26;3.20;;;1.30;;
13641;SDS011;6894;52.196;9.904;2024-02-16T08:51:53;1.97;;;1.10;;
13641;SDS011;6894;52.196;9.904;2024-02-16T08:54:19;2.97;;;1.17;;
13641;SDS011;6894;52.196;9.904;2024-02-16T08:56:47;2.77;;;1.20;;
13641;SDS011;6894;52.196;9.904;2024-02-16T08:59:14;2.13;;;1.00;;
13641;SDS011;6894;52.196;9.904;2024-02-16T09:01:42;1.63;;;1.40;;
13641;SDS011;6894;52.196;9.904;2024-02-16T09:04:09;1.50;;;1.10;;
13641;SDS011;6894;52.196;9.904;2024-02-16T09:06:36;2.00;;;1.30;;
13641;SDS011;6894;52.196;9.904;2024-02-16T09:09:04;1.73;;;1.20;;
13641;SDS011;6894;52.196;9.904;2024-02-16T09:11:31;2.47;;;1.30;;
13641;SDS011;6894;52.196;9.904;2024-02-16T09:14:00;2.03;;;1.13;;
13641;SDS011;6894;52.196;9.904;2024-02-16T09:16:26;2.90;;;1.23;;
13641;SDS011;6894;52.196;9.904;2024-02-16T09:18:53;2.23;;;1.03;;
13641;SDS011;6894;52.196;9.904;2024-02-16T09:21:20;2.63;;;1.33;;
13641;SDS011;6894;52.196;9.904;2024-02-16T09:23:49;2.33;;;1.20;;
13641;SDS011;6894;52.196;9.904;2024-02-16T09:26:15;3.13;;;1.30;;
13641;SDS011;6894;52.196;9.904;2024-02-16T09:28:42;4.10;;;1.33;;
13641;SDS011;6894;52.196;9.904;2024-02-16T09:31:13;1.90;;;1.30;;
13641;SDS011;6894;52.196;9.904;2024-02-16T09:33:40;2.33;;;1.00;;
13641;SDS011;6894;52.196;9.904;2024-02-16T09:36:07;3.10;;;1.40;;
13641;SDS011;6894;52.196;9.904;2024-02-16T09:38:34;4.27;;;1.20;;
13641;SDS011;6894;52.196;9.904;2024-02-16T09:41:01;2.23;;;1.10;;
13641;SDS011;6894;52.196;9.904;2024-02-16T09:43:29;3.40;;;1.07;;
13641;SDS011;6894;52.196;9.904;2024-02-16T09:45:57;1.43;;;1.10;;
13641;SDS011;6894;52.196;9.904;2024-02-16T09:48:27;2.13;;;1.27;;
13641;SDS011;6894;52.196;9.904;2024-02-16T09:50:54;2.20;;;1.30;;
13641;SDS011;6894;52.196;9.904;2024-02-16T09:53:23;1.90;;;1.10;;
13641;SDS011;6894;52.196;9.904;2024-02-16T09:55:51;3.43;;;1.57;;
13641;SDS011;6894;52.196;9.904;2024-02-16T09:58:18;3.37;;;1.50;;
13641;SDS011;6894;52.196;9.904;2024-02-16T10:00:49;3.37;;;1.70;;
13641;SDS011;6894;52.196;9.904;2024-02-16T10:03:27;2.83;;;1.23;;
13641;SDS011;6894;52.196;9.904;2024-02-16T10:06:04;1.60;;;1.30;;
13641;SDS011;6894;52.196;9.904;2024-02-16T10:08:32;1.73;;;1.20;;
13641;SDS011;6894;52.196;9.904;2024-02-16T10:11:02;2.77;;;1.30;;
13641;SDS011;6894;52.196;9.904;2024-02-16T10:13:30;2.30;;;1.27;;
13641;SDS011;6894;52.196;9.904;2024-02-16T10:16:06;1.70;;;1.27;;
13641;SDS011;6894;52.196;9.904;2024-02-16T10:18:35;3.63;;;1.43;;
13641;SDS011;6894;52.196;9.904;2024-02-16T10:21:02;4.20;;;1.40;;
13641;SDS011;6894;52.196;9.904;2024-02-16T10:23:29;2.33;;;1.20;;
13641;SDS011;6894;52.196;9.904;2024-02-16T10:25:57;3.07;;;1.73;;
13641;SDS011;6894;52.196;9.904;2024-02-16T10:28:25;2.67;;;1.40;;
13641;SDS011;6894;52.196;9.904;2024-02-16T10:30:57;2.53;;;1.50;;
13641;SDS011;6894;52.196;9.904;2024-02-16T10:33:26;4.07;;;1.23;;
13641;SDS011;6894;52.196;9.904;2024-02-16T10:35:56;4.47;;;1.50;;
13641;SDS011;6894;52.196;9.904;2024-02-16T10:38:24;2.67;;;1.33;;
13641;SDS011;6894;52.196;9.904;2024-02-16T10:40:52;3.23;;;1.83;;
13641;SDS011;6894;52.196;9.904;2024-02-16T10:43:19;2.47;;;1.70;;
13641;SDS011;6894;52.196;9.904;2024-02-16T10:45:48;3.40;;;1.20;;
13641;SDS011;6894;52.196;9.904;2024-02-16T10:48:18;2.20;;;1.20;;
13641;SDS011;6894;52.196;9.904;2024-02-16T10:50:44;1.97;;;1.40;;
13641;SDS011;6894;52.196;9.904;2024-02-16T10:53:15;3.20;;;1.60;;
13641;SDS011;6894;52.196;9.904;2024-02-16T10:55:46;4.77;;;1.47;;
13641;SDS011;6894;52.196;9.904;2024-02-16T10:58:13;1.57;;;1.33;;
13641;SDS011;6894;52.196;9.904;2024-02-16T11:00:50;1.83;;;1.10;;
13641;SDS011;6894;52.196;9.904;2024-02-16T11:03:17;3.00;;;1.63;;
13641;SDS011;6894;52.196;9.904;2024-02-16T11:05:49;3.40;;;1.53;;
13641;SDS011;6894;52.196;9.904;2024-02-16T11:08:18;1.10;;;1.00;;
13641;SDS011;6894;52.196;9.904;2024-02-16T11:10:55;2.53;;;1.50;;
13641;SDS011;6894;52.196;9.904;2024-02-16T11:13:22;2.47;;;1.70;;
13641;SDS011;6894;52.196;9.904;2024-02-16T11:15:56;3.87;;;1.70;;
13641;SDS011;6894;52.196;9.904;2024-02-16T11:18:24;4.10;;;1.80;;
13641;SDS011;6894;52.196;9.904;2024-02-16T11:20:51;1.83;;;1.10;;
13641;SDS011;6894;52.196;9.904;2024-02-16T11:23:28;2.47;;;1.60;;
13641;SDS011;6894;52.196;9.904;2024-02-16T11:25:59;3.10;;;1.27;;
13641;SDS011;6894;52.196;9.904;2024-02-16T11:28:27;3.07;;;1.53;;
13641;SDS011;6894;52.196;9.904;2024-02-16T11:30:55;1.63;;;1.40;;
13641;SDS011;6894;52.196;9.904;2024-02-16T11:33:21;3.33;;;1.90;;
13641;SDS011;6894;52.196;9.904;2024-02-16T11:35:54;2.80;;;1.90;;
13641;SDS011;6894;52.196;9.904;2024-02-16T11:38:22;2.40;;;1.03;;
13641;SDS011;6894;52.196;9.904;2024-02-16T11:40:57;2.07;;;1.33;;
13641;SDS011;6894;52.196;9.904;2024-02-16T11:43:25;2.90;;;1.50;;
13641;SDS011;6894;52.196;9.904;2024-02-16T11:45:52;2.03;;;1.63;;
13641;SDS011;6894;52.196;9.904;2024-02-16T11:48:19;2.60;;;1.53;;
13641;SDS011;6894;52.196;9.904;2024-02-16T11:50:47;2.50;;;1.60;;
13641;SDS011;6894;52.196;9.904;2024-02-16T11:53:15;2.90;;;1.53;;
13641;SDS011;6894;52.196;9.904;2024-02-16T11:55:46;1.93;;;1.40;;
13641;SDS011;6894;52.196;9.904;2024-02-16T11:58:16;2.67;;;1.53;;
13641;SDS011;6894;52.196;9.904;2024-02-16T12:00:43;2.63;;;1.43;;
13641;SDS011;6894;52.196;9.904;2024-02-16T12:03:10;2.50;;;1.70;;
13641;SDS011;6894;52.196;9.904;2024-02-16T12:05:37;2.10;;;1.60;;
13641;SDS011;6894;52.196;9.904;2024-02-16T12:08:05;5.57;;;1.60;;
13641;SDS011;6894;52.196;9.904;2024-02-16T12:10:32;2.60;;;1.67;;
13641;SDS011;6894;52.196;9.904;2024-02-16T12:12:59;2.43;;;1.73;;
13641;SDS011;6894;52.196;9.904;2024-02-16T12:15:27;2.73;;;1.33;;
13641;SDS011;6894;52.196;9.904;2024-02-16T12:17:58;2.57;;;1.77;;
13641;SDS011;6894;52.196;9.904;2024-02-16T12:20:26;2.63;;;1.70;;
13641;SDS011;6894;52.196;9.904;2024-02-16T12:22:52;2.63;;;1.70;;
13641;SDS011;6894;52.196;9.904;2024-02-16T12:25:19;3.57;;;1.50;;
13641;SDS011;6894;52.196;9.904;2024-02-16T12:27:46;2.97;;;1.57;;
13641;SDS011;6894;52.196;9.904;2024-02-16T12:30:13;2.77;;;1.70;;
13641;SDS011;6894;52.196;9.904;2024-02-16T12:32:42;2.30;;;1.50;;
13641;SDS011;6894;52.196;9.904;2024-02-16T12:35:09;2.57;;;1.70;;
13641;SDS011;6894;52.196;9.904;2024-02-16T12:37:35;4.57;;;1.90;;
13641;SDS011;6894;52.196;9.904;2024-02-16T12:40:02;6.13;;;1.80;;
13641;SDS011;6894;52.196;9.904;2024-02-16T12:42:31;3.37;;;1.60;;
13641;SDS011;6894;52.196;9.904;2024-02-16T12:44:58;2.73;;;1.50;;
13641;SDS011;6894;52.196;9.904;2024-02-16T12:47:25;3.47;;;1.70;;
13641;SDS011;6894;52.196;9.904;2024-02-16T12:49:55;2.67;;;1.67;;
13641;SDS011;6894;52.196;9.904;2024-02-16T12:52:22;2.77;;;1.50;;
13641;SDS011;6894;52.196;9.904;2024-02-16T12:54:49;2.47;;;1.63;;
13641;SDS011;6894;52.196;9.904;2024-02-16T12:57:16;2.63;;;1.87;;
13641;SDS011;6894;52.196;9.904;2024-02-16T12:59:43;3.53;;;1.90;;
13641;SDS011;6894;52.196;9.904;2024-02-16T13:02:10;6.97;;;2.03;;
13641;SDS011;6894;52.196;9.904;2024-02-16T13:04:37;5.13;;;1.90;;
13641;SDS011;6894;52.196;9.904;2024-02-16T13:07:05;4.73;;;1.83;;
13641;SDS011;6894;52.196;9.904;2024-02-16T13:09:32;2.80;;;1.83;;
13641;SDS011;6894;52.196;9.904;2024-02-16T13:11:58;3.53;;;1.97;;
13641;SDS011;6894;52.196;9.904;2024-02-16T13:14:26;4.37;;;1.90;;
13641;SDS011;6894;52.196;9.904;2024-02-16T13:16:53;2.67;;;1.80;;
13641;SDS011;6894;52.196;9.904;2024-02-16T13:19:19;4.00;;;2.23;;
13641;SDS011;6894;52.196;9.904;2024-02-16T13:21:46;2.93;;;1.90;;
13641;SDS011;6894;52.196;9.904;2024-02-16T13:24:14;3.50;;;2.03;;
13641;SDS011;6894;52.196;9.904;2024-02-16T13:26:41;3.83;;;1.77;;
13641;SDS011;6894;52.196;9.904;2024-02-16T13:29:08;5.03;;;1.90;;
13641;SDS011;6894;52.196;9.904;2024-02-16T13:31:35;3.00;;;1.83;;
13641;SDS011;6894;52.196;9.904;2024-02-16T13:34:01;2.83;;;1.70;;
13641;SDS011;6894;52.196;9.904;2024-02-16T13:36:28;4.07;;;1.83;;
13641;SDS011;6894;52.196;9.904;2024-02-16T13:38:56;4.20;;;1.80;;
13641;SDS011;6894;52.196;9.904;2024-02-16T13:41:24;3.33;;;2.57;;
13641;SDS011;6894;52.196;9.904;2024-02-16T13:43:51;2.00;;;1.80;;
13641;SDS011;6894;52.196;9.904;2024-02-16T13:46:18;4.47;;;1.83;;
13641;SDS011;6894;52.196;9.904;2024-02-16T13:48:45;5.50;;;1.80;;
13641;SDS011;6894;52.196;9.904;2024-02-16T13:51:12;5.40;;;2.27;;
13641;SDS011;6894;52.196;9.904;2024-02-16T13:53:39;2.70;;;1.77;;
13641;SDS011;6894;52.196;9.904;2024-02-16T13:56:06;4.43;;;1.80;;
13641;SDS011;6894;52.196;9.904;2024-02-16T13:58:35;4.53;;;2.30;;
13641;SDS011;6894;52.196;9.904;2024-02-16T14:01:03;3.50;;;2.20;;
13641;SDS011;6894;52.196;9.904;2024-02-16T14:03:30;3.23;;;2.03;;
13641;SDS011;6894;52.196;9.904;2024-02-16T14:05:58;3.20;;;2.30;;
13641;SDS011;6894;52.196;9.904;2024-02-16T14:08:25;4.47;;;2.33;;
13641;SDS011;6894;52.196;9.904;2024-02-16T14:10:53;4.47;;;2.33;;
13641;SDS011;6894;52.196;9.904;2024-02-16T14:13:20;4.80;;;2.30;;
13641;SDS011;6894;52.196;9.904;2024-02-16T14:15:51;3.37;;;1.87;;
13641;SDS011;6894;52.196;9.904;2024-02-16T14:18:17;4.73;;;2.20;;
13641;SDS011;6894;52.196;9.904;2024-02-16T14:20:44;5.27;;;2.07;;
13641;SDS011;6894;52.196;9.904;2024-02-16T14:23:11;3.23;;;2.27;;
13641;SDS011;6894;52.196;9.904;2024-02-16T14:25:38;3.07;;;2.17;;
13641;SDS011;6894;52.196;9.904;2024-02-16T14:28:05;3.23;;;2.03;;
13641;SDS011;6894;52.196;9.904;2024-02-16T14:30:32;3.07;;;2.47;;
13641;SDS011;6894;52.196;9.904;2024-02-16T14:33:01;5.83;;;2.57;;
13641;SDS011;6894;52.196;9.904;2024-02-16T14:35:29;4.27;;;1.83;;
13641;SDS011;6894;52.196;9.904;2024-02-16T14:37:56;3.23;;;2.10;;
13641;SDS011;6894;52.196;9.904;2024-02-16T14:40:23;3.97;;;2.10;;
13641;SDS011;6894;52.196;9.904;2024-02-16T14:42:50;3.43;;;2.40;;
13641;SDS011;6894;52.196;9.904;2024-02-16T14:45:17;3.10;;;2.10;;
13641;SDS011;6894;52.196;9.904;2024-02-16T14:47:46;4.47;;;2.47;;
13641;SDS011;6894;52.196;9.904;2024-02-16T14:50:14;5.07;;;2.47;;
13641;SDS011;6894;52.196;9.904;2024-02-16T14:52:41;4.40;;;3.00;;
13641;SDS011;6894;52.196;9.904;2024-02-16T14:55:09;7.13;;;2.60;;
13641;SDS011;6894;52.196;9.904;2024-02-16T14:57:36;3.87;;;3.07;;
13641;SDS011;6894;52.196;9.904;2024-02-16T15:00:03;7.27;;;2.50;;
13641;SDS011;6894;52.196;9.904;2024-02-16T15:02:30;4.40;;;3.03;;